sensor_id;sensor_type;location;lat;lon;timestamp;P1;durP1;ratioP1;P2;durP2;ratioP2
30307;SDS011;17114;52.314;8.910;2022-09-09T00:04:03;3.05;;;1.40;;
30307;SDS011;17114;52.314;8.910;2022-09-09T00:06:33;3.20;;;1.40;;
30307;SDS011;17114;52.314;8.910;2022-09-09T00:09:16;3.22;;;1.25;;
30307;SDS011;17114;52.314;8.910;2022-09-09T00:11:51;3.78;;;1.42;;
30307;SDS011;17114;52.314;8.910;2022-09-09T00:20:01;2.47;;;1.20;;
30307;SDS011;17114;52.314;8.910;2022-09-09T00:22:37;3.00;;;1.50;;
30307;SDS011;17114;52.314;8.910;2022-09-09T00:25:12;3.15;;;1.25;;
30307;SDS011;17114;52.314;8.910;2022-09-09T00:27:48;5.25;;;1.60;;
30307;SDS011;17114;52.314;8.910;2022-09-09T00:30:21;5.85;;;1.42;;
30307;SDS011;17114;52.314;8.910;2022-09-09T00:32:54;2.50;;;1.50;;
30307;SDS011;17114;52.314;8.910;2022-09-09T00:35:25;6.90;;;1.90;;
30307;SDS011;17114;52.314;8.910;2022-09-09T00:38:05;1.58;;;1.27;;
30307;SDS011;17114;52.314;8.910;2022-09-09T00:41:00;4.75;;;1.63;;
30307;SDS011;17114;52.314;8.910;2022-09-09T00:43:39;2.30;;;1.23;;
30307;SDS011;17114;52.314;8.910;2022-09-09T00:51:15;5.18;;;1.42;;
30307;SDS011;17114;52.314;8.910;2022-09-09T00:53:58;7.30;;;1.80;;
30307;SDS011;17114;52.314;8.910;2022-09-09T00:57:12;4.13;;;1.67;;
30307;SDS011;17114;52.314;8.910;2022-09-09T01:00:34;4.88;;;1.67;;
30307;SDS011;17114;52.314;8.910;2022-09-09T01:05:19;6.97;;;1.80;;
30307;SDS011;17114;52.314;8.910;2022-09-09T01:08:00;5.75;;;1.50;;
30307;SDS011;17114;52.314;8.910;2022-09-09T01:13:24;7.53;;;1.73;;
30307;SDS011;17114;52.314;8.910;2022-09-09T01:16:00;2.88;;;1.30;;
30307;SDS011;17114;52.314;8.910;2022-09-09T01:18:37;3.90;;;1.40;;
30307;SDS011;17114;52.314;8.910;2022-09-09T01:21:21;5.55;;;1.70;;
30307;SDS011;17114;52.314;8.910;2022-09-09T01:27:00;5.45;;;1.55;;
30307;SDS011;17114;52.314;8.910;2022-09-09T01:29:29;5.03;;;1.50;;
30307;SDS011;17114;52.314;8.910;2022-09-09T01:31:57;6.97;;;2.10;;
30307;SDS011;17114;52.314;8.910;2022-09-09T01:34:47;3.97;;;1.48;;
30307;SDS011;17114;52.314;8.910;2022-09-09T01:37:14;4.85;;;1.30;;
30307;SDS011;17114;52.314;8.910;2022-09-09T01:39:42;6.07;;;1.80;;
30307;SDS011;17114;52.314;8.910;2022-09-09T01:42:11;4.03;;;1.58;;
30307;SDS011;17114;52.314;8.910;2022-09-09T01:44:41;7.07;;;2.33;;
30307;SDS011;17114;52.314;8.910;2022-09-09T01:47:08;6.90;;;1.42;;
30307;SDS011;17114;52.314;8.910;2022-09-09T01:49:35;4.88;;;1.85;;
30307;SDS011;17114;52.314;8.910;2022-09-09T01:52:02;7.57;;;1.65;;
30307;SDS011;17114;52.314;8.910;2022-09-09T01:54:29;6.00;;;1.63;;
30307;SDS011;17114;52.314;8.910;2022-09-09T02:02:24;6.18;;;1.70;;
30307;SDS011;17114;52.314;8.910;2022-09-09T02:05:00;6.45;;;1.73;;
30307;SDS011;17114;52.314;8.910;2022-09-09T02:10:21;4.93;;;1.75;;
30307;SDS011;17114;52.314;8.910;2022-09-09T02:13:02;6.90;;;1.70;;
30307;SDS011;17114;52.314;8.910;2022-09-09T02:15:43;5.68;;;1.90;;
30307;SDS011;17114;52.314;8.910;2022-09-09T02:18:49;6.70;;;1.60;;
30307;SDS011;17114;52.314;8.910;2022-09-09T02:21:19;6.43;;;1.67;;
30307;SDS011;17114;52.314;8.910;2022-09-09T02:23:47;6.53;;;1.90;;
30307;SDS011;17114;52.314;8.910;2022-09-09T02:26:18;3.35;;;1.30;;
30307;SDS011;17114;52.314;8.910;2022-09-09T02:28:50;5.05;;;1.60;;
30307;SDS011;17114;52.314;8.910;2022-09-09T02:31:20;6.68;;;1.90;;
30307;SDS011;17114;52.314;8.910;2022-09-09T02:33:51;7.03;;;2.20;;
30307;SDS011;17114;52.314;8.910;2022-09-09T02:36:20;4.40;;;1.52;;
30307;SDS011;17114;52.314;8.910;2022-09-09T02:38:50;3.03;;;1.25;;
30307;SDS011;17114;52.314;8.910;2022-09-09T02:41:20;7.25;;;1.55;;
30307;SDS011;17114;52.314;8.910;2022-09-09T02:43:51;2.63;;;1.23;;
30307;SDS011;17114;52.314;8.910;2022-09-09T02:49:01;3.75;;;1.67;;
30307;SDS011;17114;52.314;8.910;2022-09-09T02:51:46;5.28;;;1.45;;
30307;SDS011;17114;52.314;8.910;2022-09-09T02:54:20;3.53;;;1.35;;
30307;SDS011;17114;52.314;8.910;2022-09-09T02:59:59;4.78;;;1.50;;
30307;SDS011;17114;52.314;8.910;2022-09-09T03:02:27;6.35;;;1.38;;
30307;SDS011;17114;52.314;8.910;2022-09-09T03:04:54;5.00;;;1.58;;
30307;SDS011;17114;52.314;8.910;2022-09-09T03:07:21;4.63;;;1.48;;
30307;SDS011;17114;52.314;8.910;2022-09-09T03:09:48;7.28;;;1.65;;
30307;SDS011;17114;52.314;8.910;2022-09-09T03:12:15;6.80;;;1.65;;
30307;SDS011;17114;52.314;8.910;2022-09-09T03:14:42;5.13;;;1.42;;
30307;SDS011;17114;52.314;8.910;2022-09-09T03:17:11;6.13;;;1.52;;
30307;SDS011;17114;52.314;8.910;2022-09-09T03:19:38;4.75;;;1.65;;
30307;SDS011;17114;52.314;8.910;2022-09-09T03:22:06;2.45;;;1.17;;
30307;SDS011;17114;52.314;8.910;2022-09-09T03:24:32;1.85;;;1.20;;
30307;SDS011;17114;52.314;8.910;2022-09-09T03:26:59;11.20;;;1.75;;
30307;SDS011;17114;52.314;8.910;2022-09-09T03:29:26;3.40;;;1.20;;
30307;SDS011;17114;52.314;8.910;2022-09-09T03:31:53;6.15;;;1.48;;
30307;SDS011;17114;52.314;8.910;2022-09-09T03:34:20;2.20;;;1.23;;
30307;SDS011;17114;52.314;8.910;2022-09-09T03:36:47;3.60;;;1.25;;
30307;SDS011;17114;52.314;8.910;2022-09-09T03:39:15;2.75;;;1.23;;
30307;SDS011;17114;52.314;8.910;2022-09-09T03:41:42;8.75;;;1.63;;
30307;SDS011;17114;52.314;8.910;2022-09-09T03:44:11;5.22;;;1.38;;
30307;SDS011;17114;52.314;8.910;2022-09-09T03:46:38;2.95;;;1.48;;
30307;SDS011;17114;52.314;8.910;2022-09-09T03:49:05;3.78;;;1.55;;
30307;SDS011;17114;52.314;8.910;2022-09-09T03:51:32;2.95;;;1.50;;
30307;SDS011;17114;52.314;8.910;2022-09-09T03:54:02;3.42;;;1.73;;
30307;SDS011;17114;52.314;8.910;2022-09-09T03:56:31;4.90;;;1.45;;
30307;SDS011;17114;52.314;8.910;2022-09-09T03:58:58;5.90;;;1.85;;
30307;SDS011;17114;52.314;8.910;2022-09-09T04:01:25;5.45;;;1.42;;
30307;SDS011;17114;52.314;8.910;2022-09-09T04:03:52;3.65;;;1.50;;
30307;SDS011;17114;52.314;8.910;2022-09-09T04:06:19;7.63;;;1.83;;
30307;SDS011;17114;52.314;8.910;2022-09-09T04:08:47;7.97;;;1.70;;
30307;SDS011;17114;52.314;8.910;2022-09-09T04:11:15;3.40;;;1.58;;
30307;SDS011;17114;52.314;8.910;2022-09-09T04:13:42;7.43;;;1.92;;
30307;SDS011;17114;52.314;8.910;2022-09-09T04:16:11;3.47;;;1.90;;
30307;SDS011;17114;52.314;8.910;2022-09-09T04:18:39;8.02;;;1.98;;
30307;SDS011;17114;52.314;8.910;2022-09-09T04:21:06;2.70;;;1.70;;
30307;SDS011;17114;52.314;8.910;2022-09-09T04:23:36;3.30;;;1.73;;
30307;SDS011;17114;52.314;8.910;2022-09-09T04:26:03;5.20;;;1.67;;
30307;SDS011;17114;52.314;8.910;2022-09-09T04:28:30;8.35;;;2.53;;
30307;SDS011;17114;52.314;8.910;2022-09-09T04:31:06;8.65;;;2.25;;
30307;SDS011;17114;52.314;8.910;2022-09-09T04:33:35;4.70;;;1.90;;
30307;SDS011;17114;52.314;8.910;2022-09-09T04:36:05;8.18;;;2.20;;
30307;SDS011;17114;52.314;8.910;2022-09-09T04:38:33;10.32;;;2.45;;
30307;SDS011;17114;52.314;8.910;2022-09-09T04:41:00;7.57;;;2.50;;
30307;SDS011;17114;52.314;8.910;2022-09-09T04:43:27;6.35;;;2.35;;
30307;SDS011;17114;52.314;8.910;2022-09-09T04:45:54;6.40;;;1.80;;
30307;SDS011;17114;52.314;8.910;2022-09-09T04:48:22;10.57;;;2.40;;
30307;SDS011;17114;52.314;8.910;2022-09-09T04:51:06;4.65;;;2.28;;
30307;SDS011;17114;52.314;8.910;2022-09-09T04:53:35;3.55;;;1.80;;
30307;SDS011;17114;52.314;8.910;2022-09-09T04:56:05;8.82;;;2.67;;
30307;SDS011;17114;52.314;8.910;2022-09-09T04:58:36;3.85;;;1.90;;
30307;SDS011;17114;52.314;8.910;2022-09-09T05:01:07;6.80;;;2.28;;
30307;SDS011;17114;52.314;8.910;2022-09-09T05:03:38;5.90;;;2.47;;
30307;SDS011;17114;52.314;8.910;2022-09-09T05:06:23;9.77;;;2.08;;
30307;SDS011;17114;52.314;8.910;2022-09-09T05:08:50;6.40;;;2.55;;
30307;SDS011;17114;52.314;8.910;2022-09-09T05:11:18;5.78;;;2.00;;
30307;SDS011;17114;52.314;8.910;2022-09-09T05:13:48;5.07;;;2.10;;
30307;SDS011;17114;52.314;8.910;2022-09-09T05:16:19;6.15;;;1.92;;
30307;SDS011;17114;52.314;8.910;2022-09-09T05:18:47;10.35;;;2.28;;
30307;SDS011;17114;52.314;8.910;2022-09-09T05:21:15;8.32;;;2.10;;
30307;SDS011;17114;52.314;8.910;2022-09-09T05:23:44;3.20;;;1.65;;
30307;SDS011;17114;52.314;8.910;2022-09-09T05:26:13;3.80;;;1.98;;
30307;SDS011;17114;52.314;8.910;2022-09-09T05:28:43;6.82;;;2.05;;
30307;SDS011;17114;52.314;8.910;2022-09-09T05:31:10;6.15;;;1.85;;
30307;SDS011;17114;52.314;8.910;2022-09-09T05:33:39;6.97;;;2.10;;
30307;SDS011;17114;52.314;8.910;2022-09-09T05:36:10;7.93;;;2.10;;
30307;SDS011;17114;52.314;8.910;2022-09-09T05:38:43;7.68;;;2.15;;
30307;SDS011;17114;52.314;8.910;2022-09-09T05:41:10;6.63;;;2.20;;
30307;SDS011;17114;52.314;8.910;2022-09-09T05:43:38;8.15;;;2.47;;
30307;SDS011;17114;52.314;8.910;2022-09-09T05:46:06;9.90;;;2.30;;
30307;SDS011;17114;52.314;8.910;2022-09-09T05:48:44;13.48;;;2.53;;
30307;SDS011;17114;52.314;8.910;2022-09-09T05:51:13;10.32;;;2.38;;
30307;SDS011;17114;52.314;8.910;2022-09-09T05:53:42;11.52;;;2.50;;
30307;SDS011;17114;52.314;8.910;2022-09-09T05:56:11;9.18;;;2.40;;
30307;SDS011;17114;52.314;8.910;2022-09-09T05:58:43;5.88;;;2.38;;
30307;SDS011;17114;52.314;8.910;2022-09-09T06:01:14;7.07;;;2.63;;
30307;SDS011;17114;52.314;8.910;2022-09-09T06:03:43;4.63;;;2.13;;
30307;SDS011;17114;52.314;8.910;2022-09-09T06:06:12;7.13;;;1.90;;
30307;SDS011;17114;52.314;8.910;2022-09-09T06:08:44;5.68;;;2.00;;
30307;SDS011;17114;52.314;8.910;2022-09-09T06:11:16;5.63;;;2.20;;
30307;SDS011;17114;52.314;8.910;2022-09-09T06:13:50;5.97;;;2.28;;
30307;SDS011;17114;52.314;8.910;2022-09-09T06:16:21;5.57;;;2.10;;
30307;SDS011;17114;52.314;8.910;2022-09-09T06:18:56;6.80;;;2.47;;
30307;SDS011;17114;52.314;8.910;2022-09-09T06:21:24;5.05;;;2.03;;
30307;SDS011;17114;52.314;8.910;2022-09-09T06:23:59;10.07;;;2.50;;
30307;SDS011;17114;52.314;8.910;2022-09-09T06:26:27;7.53;;;2.72;;
30307;SDS011;17114;52.314;8.910;2022-09-09T06:28:59;8.02;;;2.47;;
30307;SDS011;17114;52.314;8.910;2022-09-09T06:31:29;5.47;;;2.28;;
30307;SDS011;17114;52.314;8.910;2022-09-09T06:33:57;8.32;;;2.25;;
30307;SDS011;17114;52.314;8.910;2022-09-09T06:36:26;8.77;;;2.30;;
30307;SDS011;17114;52.314;8.910;2022-09-09T06:38:55;3.50;;;1.65;;
30307;SDS011;17114;52.314;8.910;2022-09-09T06:41:23;8.20;;;2.10;;
30307;SDS011;17114;52.314;8.910;2022-09-09T06:43:54;5.05;;;1.55;;
30307;SDS011;17114;52.314;8.910;2022-09-09T06:46:23;6.75;;;1.73;;
30307;SDS011;17114;52.314;8.910;2022-09-09T06:48:56;5.28;;;1.90;;
30307;SDS011;17114;52.314;8.910;2022-09-09T06:51:30;6.78;;;2.13;;
30307;SDS011;17114;52.314;8.910;2022-09-09T06:53:59;7.88;;;2.10;;
30307;SDS011;17114;52.314;8.910;2022-09-09T06:56:32;4.93;;;1.75;;
30307;SDS011;17114;52.314;8.910;2022-09-09T06:59:04;4.88;;;1.85;;
30307;SDS011;17114;52.314;8.910;2022-09-09T07:01:33;4.95;;;1.50;;
30307;SDS011;17114;52.314;8.910;2022-09-09T07:04:04;9.15;;;2.13;;
30307;SDS011;17114;52.314;8.910;2022-09-09T07:06:35;3.20;;;1.27;;
30307;SDS011;17114;52.314;8.910;2022-09-09T07:09:05;9.32;;;1.80;;
30307;SDS011;17114;52.314;8.910;2022-09-09T07:11:34;3.50;;;1.20;;
30307;SDS011;17114;52.314;8.910;2022-09-09T07:14:12;5.63;;;2.05;;
30307;SDS011;17114;52.314;8.910;2022-09-09T07:16:40;4.47;;;1.63;;
30307;SDS011;17114;52.314;8.910;2022-09-09T07:19:08;8.50;;;1.40;;
30307;SDS011;17114;52.314;8.910;2022-09-09T07:21:37;3.85;;;1.38;;
30307;SDS011;17114;52.314;8.910;2022-09-09T07:24:05;6.13;;;1.52;;
30307;SDS011;17114;52.314;8.910;2022-09-09T07:26:36;6.75;;;1.73;;
30307;SDS011;17114;52.314;8.910;2022-09-09T07:29:05;4.53;;;1.60;;
30307;SDS011;17114;52.314;8.910;2022-09-09T07:31:34;4.22;;;1.33;;
30307;SDS011;17114;52.314;8.910;2022-09-09T07:34:03;3.90;;;1.55;;
30307;SDS011;17114;52.314;8.910;2022-09-09T07:36:32;4.72;;;1.70;;
30307;SDS011;17114;52.314;8.910;2022-09-09T07:39:02;5.93;;;1.60;;
30307;SDS011;17114;52.314;8.910;2022-09-09T07:41:35;4.93;;;1.63;;
30307;SDS011;17114;52.314;8.910;2022-09-09T07:44:04;4.95;;;1.50;;
30307;SDS011;17114;52.314;8.910;2022-09-09T07:46:33;5.35;;;1.65;;
30307;SDS011;17114;52.314;8.910;2022-09-09T07:49:01;7.00;;;1.60;;
30307;SDS011;17114;52.314;8.910;2022-09-09T07:51:29;5.60;;;1.75;;
30307;SDS011;17114;52.314;8.910;2022-09-09T07:54:01;5.65;;;1.90;;
30307;SDS011;17114;52.314;8.910;2022-09-09T07:56:30;6.05;;;1.52;;
30307;SDS011;17114;52.314;8.910;2022-09-09T07:58:59;5.55;;;1.77;;
30307;SDS011;17114;52.314;8.910;2022-09-09T08:01:28;9.90;;;1.80;;
30307;SDS011;17114;52.314;8.910;2022-09-09T08:03:58;6.03;;;1.70;;
30307;SDS011;17114;52.314;8.910;2022-09-09T08:06:31;6.82;;;1.90;;
30307;SDS011;17114;52.314;8.910;2022-09-09T08:09:01;4.82;;;1.45;;
30307;SDS011;17114;52.314;8.910;2022-09-09T08:11:28;8.95;;;1.77;;
30307;SDS011;17114;52.314;8.910;2022-09-09T08:14:04;6.28;;;1.70;;
30307;SDS011;17114;52.314;8.910;2022-09-09T08:16:35;3.63;;;1.40;;
30307;SDS011;17114;52.314;8.910;2022-09-09T08:19:04;7.53;;;1.58;;
30307;SDS011;17114;52.314;8.910;2022-09-09T08:21:34;6.90;;;2.10;;
30307;SDS011;17114;52.314;8.910;2022-09-09T08:24:04;6.05;;;1.52;;
30307;SDS011;17114;52.314;8.910;2022-09-09T08:26:32;6.93;;;1.70;;
30307;SDS011;17114;52.314;8.910;2022-09-09T08:29:05;6.80;;;1.85;;
30307;SDS011;17114;52.314;8.910;2022-09-09T08:31:34;6.90;;;1.60;;
30307;SDS011;17114;52.314;8.910;2022-09-09T08:34:03;6.07;;;1.58;;
30307;SDS011;17114;52.314;8.910;2022-09-09T08:36:34;6.55;;;1.67;;
30307;SDS011;17114;52.314;8.910;2022-09-09T08:39:06;7.57;;;1.80;;
30307;SDS011;17114;52.314;8.910;2022-09-09T08:44:42;5.07;;;1.40;;
30307;SDS011;17114;52.314;8.910;2022-09-09T08:55:53;7.28;;;2.10;;
30307;SDS011;17114;52.314;8.910;2022-09-09T08:58:28;6.45;;;2.20;;
30307;SDS011;17114;52.314;8.910;2022-09-09T09:01:05;9.85;;;1.70;;
30307;SDS011;17114;52.314;8.910;2022-09-09T09:12:19;7.20;;;1.42;;
30307;SDS011;17114;52.314;8.910;2022-09-09T09:14:49;9.57;;;2.05;;
30307;SDS011;17114;52.314;8.910;2022-09-09T09:17:20;7.78;;;2.10;;
30307;SDS011;17114;52.314;8.910;2022-09-09T09:27:57;6.15;;;1.95;;
30307;SDS011;17114;52.314;8.910;2022-09-09T09:30:33;6.60;;;1.60;;
30307;SDS011;17114;52.314;8.910;2022-09-09T09:33:06;6.32;;;1.63;;
30307;SDS011;17114;52.314;8.910;2022-09-09T09:35:42;7.53;;;1.70;;
30307;SDS011;17114;52.314;8.910;2022-09-09T09:38:17;5.55;;;1.80;;
30307;SDS011;17114;52.314;8.910;2022-09-09T09:41:15;6.93;;;1.60;;
30307;SDS011;17114;52.314;8.910;2022-09-09T09:44:02;5.78;;;2.00;;
30307;SDS011;17114;52.314;8.910;2022-09-09T09:46:30;9.13;;;1.80;;
30307;SDS011;17114;52.314;8.910;2022-09-09T09:49:02;8.75;;;1.98;;
30307;SDS011;17114;52.314;8.910;2022-09-09T09:51:35;5.00;;;1.55;;
30307;SDS011;17114;52.314;8.910;2022-09-09T09:54:05;6.82;;;1.98;;
30307;SDS011;17114;52.314;8.910;2022-09-09T09:56:40;5.50;;;1.50;;
30307;SDS011;17114;52.314;8.910;2022-09-09T09:59:32;8.18;;;1.90;;
30307;SDS011;17114;52.314;8.910;2022-09-09T10:02:19;8.35;;;1.70;;
30307;SDS011;17114;52.314;8.910;2022-09-09T10:05:08;7.45;;;2.00;;
30307;SDS011;17114;52.314;8.910;2022-09-09T10:07:38;6.10;;;1.92;;
30307;SDS011;17114;52.314;8.910;2022-09-09T10:10:26;10.63;;;1.95;;
30307;SDS011;17114;52.314;8.910;2022-09-09T10:13:20;6.43;;;1.92;;
30307;SDS011;17114;52.314;8.910;2022-09-09T10:19:00;7.82;;;1.80;;
30307;SDS011;17114;52.314;8.910;2022-09-09T10:32:38;8.43;;;1.77;;
30307;SDS011;17114;52.314;8.910;2022-09-09T10:35:21;8.10;;;1.70;;
30307;SDS011;17114;52.314;8.910;2022-09-09T10:38:04;5.93;;;1.70;;
30307;SDS011;17114;52.314;8.910;2022-09-09T10:57:33;6.10;;;1.30;;
30307;SDS011;17114;52.314;8.910;2022-09-09T11:00:14;8.97;;;1.77;;
30307;SDS011;17114;52.314;8.910;2022-09-09T11:02:44;3.63;;;1.10;;
30307;SDS011;17114;52.314;8.910;2022-09-09T11:05:20;13.00;;;1.65;;
30307;SDS011;17114;52.314;8.910;2022-09-09T11:18:54;6.28;;;1.40;;
30307;SDS011;17114;52.314;8.910;2022-09-09T11:21:35;9.85;;;1.75;;
30307;SDS011;17114;52.314;8.910;2022-09-09T11:24:52;2.53;;;0.90;;
30307;SDS011;17114;52.314;8.910;2022-09-09T11:27:12;6.47;;;2.20;;
30307;SDS011;17114;52.314;8.910;2022-09-09T11:33:40;5.47;;;1.48;;
30307;SDS011;17114;52.314;8.910;2022-09-09T11:38:47;7.70;;;1.55;;
30307;SDS011;17114;52.314;8.910;2022-09-09T11:41:17;6.03;;;1.20;;
30307;SDS011;17114;52.314;8.910;2022-09-09T11:43:50;8.48;;;1.38;;
30307;SDS011;17114;52.314;8.910;2022-09-09T11:46:19;7.90;;;1.35;;
30307;SDS011;17114;52.314;8.910;2022-09-09T11:48:59;6.32;;;1.33;;
30307;SDS011;17114;52.314;8.910;2022-09-09T11:51:29;5.53;;;1.40;;
30307;SDS011;17114;52.314;8.910;2022-09-09T11:56:58;5.35;;;1.48;;
30307;SDS011;17114;52.314;8.910;2022-09-09T12:01:57;3.50;;;1.30;;
30307;SDS011;17114;52.314;8.910;2022-09-09T12:06:53;5.45;;;1.17;;
30307;SDS011;17114;52.314;8.910;2022-09-09T12:33:45;7.00;;;1.35;;
30307;SDS011;17114;52.314;8.910;2022-09-09T12:36:15;8.00;;;1.38;;
30307;SDS011;17114;52.314;8.910;2022-09-09T12:38:45;6.60;;;1.42;;
30307;SDS011;17114;52.314;8.910;2022-09-09T12:41:23;7.38;;;1.27;;
30307;SDS011;17114;52.314;8.910;2022-09-09T12:44:02;4.28;;;1.13;;
30307;SDS011;17114;52.314;8.910;2022-09-09T12:46:39;4.80;;;1.13;;
30307;SDS011;17114;52.314;8.910;2022-09-09T12:49:31;4.35;;;1.48;;
30307;SDS011;17114;52.314;8.910;2022-09-09T12:52:04;4.60;;;1.20;;
30307;SDS011;17114;52.314;8.910;2022-09-09T12:54:36;5.30;;;1.33;;
30307;SDS011;17114;52.314;8.910;2022-09-09T12:57:04;4.60;;;1.20;;
30307;SDS011;17114;52.314;8.910;2022-09-09T12:59:36;4.93;;;1.23;;
30307;SDS011;17114;52.314;8.910;2022-09-09T13:02:16;14.68;;;1.48;;
30307;SDS011;17114;52.314;8.910;2022-09-09T13:04:46;2.58;;;1.02;;
30307;SDS011;17114;52.314;8.910;2022-09-09T13:07:14;4.00;;;0.98;;
30307;SDS011;17114;52.314;8.910;2022-09-09T13:09:43;5.10;;;1.10;;
30307;SDS011;17114;52.314;8.910;2022-09-09T13:12:16;3.60;;;1.30;;
30307;SDS011;17114;52.314;8.910;2022-09-09T13:14:47;4.60;;;1.23;;
30307;SDS011;17114;52.314;8.910;2022-09-09T13:17:21;6.65;;;1.27;;
30307;SDS011;17114;52.314;8.910;2022-09-09T13:19:55;3.63;;;0.90;;
30307;SDS011;17114;52.314;8.910;2022-09-09T13:25:21;4.28;;;1.15;;
30307;SDS011;17114;52.314;8.910;2022-09-09T13:27:58;3.80;;;0.90;;
30307;SDS011;17114;52.314;8.910;2022-09-09T13:30:32;3.17;;;1.15;;
30307;SDS011;17114;52.314;8.910;2022-09-09T13:33:52;4.18;;;1.20;;
30307;SDS011;17114;52.314;8.910;2022-09-09T13:36:29;4.22;;;1.02;;
30307;SDS011;17114;52.314;8.910;2022-09-09T13:38:58;7.65;;;1.30;;
30307;SDS011;17114;52.314;8.910;2022-09-09T13:41:34;2.80;;;0.77;;
30307;SDS011;17114;52.314;8.910;2022-09-09T13:44:03;4.25;;;1.23;;
30307;SDS011;17114;52.314;8.910;2022-09-09T13:46:36;5.00;;;1.20;;
30307;SDS011;17114;52.314;8.910;2022-09-09T13:54:09;2.85;;;1.08;;
30307;SDS011;17114;52.314;8.910;2022-09-09T13:56:37;2.17;;;0.98;;
30307;SDS011;17114;52.314;8.910;2022-09-09T13:59:08;4.60;;;1.00;;
30307;SDS011;17114;52.314;8.910;2022-09-09T14:01:42;3.67;;;0.82;;
30307;SDS011;17114;52.314;8.910;2022-09-09T14:04:09;2.78;;;0.70;;
30307;SDS011;17114;52.314;8.910;2022-09-09T14:06:37;3.88;;;1.20;;
30307;SDS011;17114;52.314;8.910;2022-09-09T14:09:06;3.80;;;1.05;;
30307;SDS011;17114;52.314;8.910;2022-09-09T14:11:36;5.53;;;1.25;;
30307;SDS011;17114;52.314;8.910;2022-09-09T14:14:02;4.03;;;1.25;;
30307;SDS011;17114;52.314;8.910;2022-09-09T14:16:29;8.35;;;1.33;;
30307;SDS011;17114;52.314;8.910;2022-09-09T14:18:57;4.93;;;1.13;;
30307;SDS011;17114;52.314;8.910;2022-09-09T14:21:24;17.52;;;2.45;;
30307;SDS011;17114;52.314;8.910;2022-09-09T14:23:51;5.18;;;1.05;;
30307;SDS011;17114;52.314;8.910;2022-09-09T14:26:19;5.20;;;1.00;;
30307;SDS011;17114;52.314;8.910;2022-09-09T14:28:47;6.35;;;1.30;;
30307;SDS011;17114;52.314;8.910;2022-09-09T14:31:20;4.78;;;1.33;;
30307;SDS011;17114;52.314;8.910;2022-09-09T14:33:47;5.35;;;1.55;;
30307;SDS011;17114;52.314;8.910;2022-09-09T14:36:14;4.05;;;1.13;;
30307;SDS011;17114;52.314;8.910;2022-09-09T14:38:41;3.65;;;1.55;;
30307;SDS011;17114;52.314;8.910;2022-09-09T14:41:09;3.13;;;1.30;;
30307;SDS011;17114;52.314;8.910;2022-09-09T14:43:38;6.50;;;1.65;;
30307;SDS011;17114;52.314;8.910;2022-09-09T14:46:06;5.10;;;1.77;;
30307;SDS011;17114;52.314;8.910;2022-09-09T14:48:34;7.70;;;1.63;;
30307;SDS011;17114;52.314;8.910;2022-09-09T14:51:05;3.35;;;1.17;;
30307;SDS011;17114;52.314;8.910;2022-09-09T14:53:41;5.35;;;1.30;;
30307;SDS011;17114;52.314;8.910;2022-09-09T14:56:10;4.47;;;1.50;;
30307;SDS011;17114;52.314;8.910;2022-09-09T14:58:42;4.32;;;1.35;;
30307;SDS011;17114;52.314;8.910;2022-09-09T15:01:17;3.70;;;1.00;;
30307;SDS011;17114;52.314;8.910;2022-09-09T15:03:49;5.55;;;1.42;;
30307;SDS011;17114;52.314;8.910;2022-09-09T15:06:18;4.93;;;1.10;;
30307;SDS011;17114;52.314;8.910;2022-09-09T15:08:46;3.83;;;0.85;;
30307;SDS011;17114;52.314;8.910;2022-09-09T15:11:14;6.80;;;1.10;;
30307;SDS011;17114;52.314;8.910;2022-09-09T15:13:41;5.88;;;0.98;;
30307;SDS011;17114;52.314;8.910;2022-09-09T15:16:14;2.72;;;1.05;;
30307;SDS011;17114;52.314;8.910;2022-09-09T15:18:43;3.72;;;1.13;;
30307;SDS011;17114;52.314;8.910;2022-09-09T15:21:21;3.72;;;0.93;;
30307;SDS011;17114;52.314;8.910;2022-09-09T15:23:50;4.03;;;1.20;;
30307;SDS011;17114;52.314;8.910;2022-09-09T15:26:17;4.28;;;0.77;;
30307;SDS011;17114;52.314;8.910;2022-09-09T15:28:48;1.40;;;0.80;;
30307;SDS011;17114;52.314;8.910;2022-09-09T15:31:18;3.78;;;1.50;;
30307;SDS011;17114;52.314;8.910;2022-09-09T15:33:56;4.65;;;1.80;;
30307;SDS011;17114;52.314;8.910;2022-09-09T15:38:58;6.90;;;1.92;;
30307;SDS011;17114;52.314;8.910;2022-09-09T15:41:26;4.05;;;1.63;;
30307;SDS011;17114;52.314;8.910;2022-09-09T15:43:54;3.30;;;1.35;;
30307;SDS011;17114;52.314;8.910;2022-09-09T15:49:09;3.88;;;1.25;;
30307;SDS011;17114;52.314;8.910;2022-09-09T15:51:41;4.60;;;1.30;;
30307;SDS011;17114;52.314;8.910;2022-09-09T15:54:11;5.45;;;1.02;;
30307;SDS011;17114;52.314;8.910;2022-09-09T15:56:47;4.30;;;0.90;;
30307;SDS011;17114;52.314;8.910;2022-09-09T15:59:24;3.38;;;1.17;;
30307;SDS011;17114;52.314;8.910;2022-09-09T16:01:54;4.10;;;0.82;;
30307;SDS011;17114;52.314;8.910;2022-09-09T16:04:22;1.60;;;0.80;;
30307;SDS011;17114;52.314;8.910;2022-09-09T16:06:51;3.72;;;0.95;;
30307;SDS011;17114;52.314;8.910;2022-09-09T16:09:18;2.97;;;0.93;;
30307;SDS011;17114;52.314;8.910;2022-09-09T16:11:46;3.67;;;1.10;;
30307;SDS011;17114;52.314;8.910;2022-09-09T16:14:14;1.67;;;1.00;;
30307;SDS011;17114;52.314;8.910;2022-09-09T16:16:42;3.35;;;1.13;;
30307;SDS011;17114;52.314;8.910;2022-09-09T16:19:10;4.72;;;1.00;;
30307;SDS011;17114;52.314;8.910;2022-09-09T16:21:40;4.10;;;0.90;;
30307;SDS011;17114;52.314;8.910;2022-09-09T16:24:12;3.80;;;1.42;;
30307;SDS011;17114;52.314;8.910;2022-09-09T16:26:45;5.68;;;1.20;;
30307;SDS011;17114;52.314;8.910;2022-09-09T16:29:14;4.72;;;1.35;;
30307;SDS011;17114;52.314;8.910;2022-09-09T16:31:42;3.15;;;1.00;;
30307;SDS011;17114;52.314;8.910;2022-09-09T16:34:09;6.25;;;1.35;;
30307;SDS011;17114;52.314;8.910;2022-09-09T16:36:37;4.20;;;1.10;;
30307;SDS011;17114;52.314;8.910;2022-09-09T16:39:07;3.10;;;1.30;;
30307;SDS011;17114;52.314;8.910;2022-09-09T16:41:36;4.20;;;1.52;;
30307;SDS011;17114;52.314;8.910;2022-09-09T16:44:05;2.00;;;1.00;;
30307;SDS011;17114;52.314;8.910;2022-09-09T16:46:34;3.10;;;1.30;;
30307;SDS011;17114;52.314;8.910;2022-09-09T16:49:07;3.35;;;1.10;;
30307;SDS011;17114;52.314;8.910;2022-09-09T16:51:37;4.93;;;1.10;;
30307;SDS011;17114;52.314;8.910;2022-09-09T16:54:15;5.57;;;1.30;;
30307;SDS011;17114;52.314;8.910;2022-09-09T16:56:44;3.47;;;1.23;;
30307;SDS011;17114;52.314;8.910;2022-09-09T16:59:14;2.67;;;0.90;;
30307;SDS011;17114;52.314;8.910;2022-09-09T17:01:43;5.10;;;1.20;;
30307;SDS011;17114;52.314;8.910;2022-09-09T17:04:12;2.65;;;0.95;;
30307;SDS011;17114;52.314;8.910;2022-09-09T17:06:45;2.72;;;1.10;;
30307;SDS011;17114;52.314;8.910;2022-09-09T17:09:16;4.78;;;1.20;;
30307;SDS011;17114;52.314;8.910;2022-09-09T17:11:44;3.40;;;0.95;;
30307;SDS011;17114;52.314;8.910;2022-09-09T17:14:14;3.03;;;0.95;;
30307;SDS011;17114;52.314;8.910;2022-09-09T17:16:43;4.28;;;1.20;;
30307;SDS011;17114;52.314;8.910;2022-09-09T17:19:13;2.92;;;1.05;;
30307;SDS011;17114;52.314;8.910;2022-09-09T17:21:41;4.30;;;1.15;;
30307;SDS011;17114;52.314;8.910;2022-09-09T17:24:28;4.75;;;1.10;;
30307;SDS011;17114;52.314;8.910;2022-09-09T17:26:56;2.95;;;1.27;;
30307;SDS011;17114;52.314;8.910;2022-09-09T17:29:25;5.53;;;1.38;;
30307;SDS011;17114;52.314;8.910;2022-09-09T17:31:52;3.63;;;1.20;;
30307;SDS011;17114;52.314;8.910;2022-09-09T17:34:21;7.13;;;1.92;;
30307;SDS011;17114;52.314;8.910;2022-09-09T17:36:48;4.40;;;1.30;;
30307;SDS011;17114;52.314;8.910;2022-09-09T17:39:15;4.15;;;1.13;;
30307;SDS011;17114;52.314;8.910;2022-09-09T17:41:42;2.90;;;1.10;;
30307;SDS011;17114;52.314;8.910;2022-09-09T17:44:09;4.13;;;1.25;;
30307;SDS011;17114;52.314;8.910;2022-09-09T17:46:40;4.80;;;1.45;;
30307;SDS011;17114;52.314;8.910;2022-09-09T17:49:09;3.63;;;1.55;;
30307;SDS011;17114;52.314;8.910;2022-09-09T17:51:41;4.70;;;1.33;;
30307;SDS011;17114;52.314;8.910;2022-09-09T17:54:09;3.22;;;1.30;;